Impacts METAR Board
IDs:

KPDX - Portland Intl Arpt, OR, US

Updated at: 0700 UTC 21 Sep 2018
Potential Impact None Slight Moderate High
Time 20/19Z 20/20Z 20/21Z 20/22Z 20/23Z 21/00Z 21/01Z 21/02Z 21/03Z 21/04Z 21/05Z 21/06Z 21/07Z
Temp63 66 68 70 72 72 72 69 67 65 62 60 59
Dewpt49 47 46 46 45 45 45 46 51 53 50 50 50
Altim30.18 30.16 30.14 30.12 30.11 30.10 30.09 30.09 30.09 30.10 30.10 30.09 30.09
VIS10 10 10 10 10 10 10 10 10 10 10 10 10
CIG-- -- -- -- -- -- -- -- -- -- -- -- --
CoverSCTSCTFEWFEWFEWFEWFEWFEWFEWFEWCLRFEWCLR
FltCatVFRVFRVFRVFRVFRVFRVFRVFRVFRVFRVFRVFRVFR
WX--------------------------
WDir34003103600008070901802000
WSpd3 3 4 4 3 0 0 5 4 3 4 5 0
WGst-- -- -- -- -- -- -- -- -- -- -- -- --
Raw hourly METARs
KPDX 201853Z 34003KT 10SM SCT032 SCT250 17/09 A3018 RMK AO2 SLP217 T01720094
KPDX 201953Z VRB03KT 10SM SCT035 SCT250 19/08 A3016 RMK AO2 SLP211 T01890083
KPDX 202053Z 31004KT 10SM FEW035 FEW250 20/08 A3014 RMK AO2 SLP206 T02000078 58014
KPDX 202153Z 36004KT 10SM FEW040 FEW250 21/08 A3012 RMK AO2 SLP199 T02110078
KPDX 202253Z VRB03KT 10SM FEW045 FEW250 22/07 A3011 RMK AO2 SLP196 T02220072
KPDX 202353Z 00000KT 10SM FEW050 FEW250 22/07 A3010 RMK AO2 SLP192 T02220072 10222 20167 56014
KPDX 210053Z 00000KT 10SM FEW250 22/07 A3009 RMK AO2 SLP189 T02220072
KPDX 210153Z 08005KT 10SM FEW250 21/08 A3009 RMK AO2 SLP189 T02060078
KPDX 210253Z 07004KT 10SM FEW250 19/11 A3009 RMK AO2 SLP189 T01940106 55003
KPDX 210353Z 09003KT 10SM FEW250 18/12 A3010 RMK AO2 SLP192 T01830117
KPDX 210453Z 18004KT 10SM CLR 17/10 A3010 RMK AO2 SLP191 T01670100
KPDX 210553Z 20005KT 10SM FEW250 16/10 A3009 RMK AO2 SLP190 T01560100 10228 20150 50000
KPDX 210653Z 00000KT 10SM CLR 15/10 A3009 RMK AO2 SLP187 T01500100



Page loaded:  07:32 UTC  |   12:32 AM Pacific  |   01:32 AM Mountain  |   02:32 AM Central  |   03:32 AM Eastern

 

ADVISORIES

FORECASTS

FORECASTS

OBSERVATIONS

USER TOOLS

ABOUT US